Portada
METAR-TAF:

METAR-TAF

Aeroports :

Blagovésxensk, Rússia

latitud: 50-25-30N, longitud: 127-24-48E, altitud: 195 m

Observació

L'informe es va fer fa 29 minuts, a les 20:30 UTC
Vent 4 kt del Nord
Temperatura -1°C
Humitat 64%
Pressió 1011 hPa
Visibilitat 10 km o més
Escasses núvols a una alçada de 3300 ft

METAR: UHBB 302030Z 36002MPS 9999 FEW033 M01/M07 Q1011 R36/090060 NOSIG RMK QFE741/0988

Hora: 05:59 (20:59 UTC)

Pronòstic

L'informe es va fer fa 1 hora i 24 minuts, a les 19:35 UTC
Pronòstic vàlid del 30 a les 21 UTC al 31 a les 21 UTC
Vent 6 kt del Nord
Visibilitat 10 km o més
Núvols disperses a una alçada de 3000 ft
Evolucionant progressivament
l' 30 a les 23 UTC al 31 a les 01 UTC
Vent 12 kt del Nord amb ràfegues de 21 kt
Evolucionant progressivament
l' 31 a les 08 UTC al 31 a les 10 UTC
Vent 6 kt del Oest/Sud-Oest

TAF: UHBB 301935Z 3021/3121 01003MPS 9999 SCT030 BECMG 3023/3101 35006G11MPS BECMG 3108/3110 25003MPS

Observacions i pronòstics meteorològics de més de 4000 aeroports (METAR i TAF).

Les estacions disponibles són els punts grocs i vermells al mapa.

Posi el ratolí al punt desitjat per veure el nom de l'estació.

Feu clic per veure les observacions i els pronòstics meteorològics.

Per canviar el mapa: feu clic els botons verds amb una creu de color negre per apropar; al botó verd amb un guió per allunyar la imatge; o en les fletxes verdes per a mapes adjacents.


METAR-TAF: